createdAt,value
2018-11-22T12:17:58.375Z,53.90
2018-11-22T12:20:27.494Z,50.60
2018-11-22T12:22:57.746Z,51.20
2018-11-22T12:25:27.757Z,52.70
2018-11-22T12:27:59.248Z,50.50
2018-11-22T12:30:30.774Z,48.47
2018-11-22T12:33:05.051Z,52.57
2018-11-22T12:35:39.580Z,51.63
2018-11-22T12:38:14.015Z,53.10
2018-11-22T12:40:43.223Z,52.57
2018-11-22T12:43:12.423Z,51.37
2018-11-22T12:45:41.642Z,51.23
2018-11-22T12:48:11.545Z,51.30
2018-11-22T12:50:40.668Z,53.00
2018-11-22T12:53:09.808Z,56.00
2018-11-22T12:55:38.941Z,52.97
2018-11-22T12:58:08.100Z,51.03
2018-11-22T13:00:37.231Z,52.13
2018-11-22T13:03:06.434Z,52.07
2018-11-22T13:05:35.580Z,53.30
2018-11-22T13:08:04.760Z,48.17
2018-11-22T13:10:33.870Z,52.57
2018-11-22T13:13:03.046Z,52.90
2018-11-22T13:15:32.284Z,54.90
2018-11-22T13:18:01.416Z,49.97
2018-11-22T13:20:30.574Z,53.40
2018-11-22T13:22:59.704Z,51.73
2018-11-22T13:25:28.873Z,51.03
2018-11-22T13:27:58.024Z,49.77
2018-11-22T13:30:28.305Z,50.20
2018-11-22T13:32:58.135Z,50.47
2018-11-22T13:35:27.266Z,48.90
2018-11-22T13:37:57.370Z,47.57
2018-11-22T13:40:26.529Z,48.90
2018-11-22T13:42:56.285Z,52.60
2018-11-22T13:45:26.769Z,51.33
2018-11-22T13:47:56.617Z,51.97
2018-11-22T13:50:27.743Z,50.67
2018-11-22T13:52:59.609Z,48.70
2018-11-22T13:55:28.761Z,50.50
2018-11-22T13:57:58.232Z,49.90
2018-11-22T14:00:31.483Z,48.13
2018-11-22T14:03:02.128Z,49.60
2018-11-22T14:05:31.305Z,50.60
2018-11-22T14:08:00.523Z,51.03
2018-11-22T14:10:29.771Z,49.60
2018-11-22T14:12:58.952Z,56.20
2018-11-22T14:15:29.476Z,48.97
2018-11-22T14:18:03.248Z,49.37
2018-11-22T14:20:33.779Z,51.20
2018-11-22T14:23:02.907Z,48.70
2018-11-22T14:25:32.080Z,52.37
2018-11-22T14:28:01.250Z,48.93
2018-11-22T14:30:32.221Z,52.23
2018-11-22T14:33:01.403Z,48.63
2018-11-22T14:35:30.574Z,47.57
2018-11-22T14:37:59.719Z,51.93
2018-11-22T14:40:31.171Z,48.47
2018-11-22T14:43:00.335Z,50.33
2018-11-22T14:45:30.290Z,50.63
2018-11-22T14:48:00.793Z,48.93
2018-11-22T14:50:39.898Z,51.33
2018-11-22T14:53:13.526Z,50.10
2018-11-22T14:55:42.642Z,47.70
2018-11-22T14:58:11.774Z,48.40
2018-11-22T15:00:40.933Z,49.13
2018-11-22T15:03:10.106Z,48.67
2018-11-22T15:05:39.311Z,49.17
2018-11-22T15:08:08.457Z,49.27
2018-11-22T15:10:37.620Z,50.97
2018-11-22T15:13:07.107Z,52.80
2018-11-22T15:15:36.292Z,51.40
2018-11-22T15:18:05.513Z,49.87
2018-11-22T15:20:34.654Z,48.60
2018-11-22T15:23:03.772Z,50.47
2018-11-22T15:25:32.912Z,47.67
2018-11-22T15:28:02.048Z,48.50
2018-11-22T15:30:31.215Z,50.80
2018-11-22T15:33:00.611Z,48.87
2018-11-22T15:35:30.862Z,47.53
2018-11-22T15:37:59.867Z,53.20
2018-11-22T15:40:29.028Z,48.80
2018-11-22T15:42:59.843Z,52.10
2018-11-22T15:45:34.635Z,49.83
2018-11-22T15:47:58.680Z,52.93
2018-11-22T15:50:28.665Z,48.93
2018-11-22T15:52:57.882Z,50.63
2018-11-22T15:55:27.469Z,46.90
2018-11-22T15:57:59.247Z,50.27
2018-11-22T16:00:30.681Z,50.67
2018-11-22T16:03:00.412Z,51.03
2018-11-22T16:05:29.930Z,50.87
2018-11-22T16:07:59.076Z,52.77
2018-11-22T16:10:29.939Z,52.03
2018-11-22T16:13:02.490Z,52.60
2018-11-22T16:15:37.274Z,50.80
2018-11-22T16:18:06.700Z,58.23
2018-11-22T16:20:35.901Z,53.47
2018-11-22T16:23:05.443Z,57.73
2018-11-22T16:25:34.647Z,53.50
2018-11-22T16:28:03.795Z,51.00
2018-11-22T16:30:33.937Z,56.23
2018-11-22T16:33:03.173Z,57.90
2018-11-22T16:35:33.718Z,52.70
2018-11-22T16:38:02.547Z,55.90
2018-11-22T16:40:31.810Z,56.73
2018-11-22T16:43:02.299Z,55.10
2018-11-22T16:45:32.733Z,57.27
2018-11-22T16:48:03.399Z,54.90
2018-11-22T16:50:33.588Z,53.97
2018-11-22T16:53:02.766Z,58.20
2018-11-22T16:55:31.931Z,58.20
2018-11-22T16:58:02.073Z,54.93
2018-11-22T17:00:38.742Z,55.70
2018-11-22T17:03:10.590Z,55.23
2018-11-22T17:05:39.988Z,55.63
2018-11-22T17:08:09.768Z,57.57
2018-11-22T17:10:39.542Z,57.97
2018-11-22T17:13:08.745Z,56.30
2018-11-22T17:15:39.184Z,53.73
2018-11-22T17:18:09.624Z,54.57
2018-11-22T17:20:45.118Z,56.87
2018-11-22T17:23:14.260Z,54.67
2018-11-22T17:25:43.412Z,55.40
2018-11-22T17:28:12.575Z,56.13
2018-11-22T17:30:43.083Z,55.20
2018-11-22T17:33:12.280Z,57.93
2018-11-22T17:35:42.135Z,54.50
2018-11-22T17:38:12.011Z,58.00
2018-11-22T17:40:46.761Z,57.97
2018-11-22T17:43:16.135Z,56.20
2018-11-22T17:45:46.694Z,56.53
2018-11-22T17:48:15.860Z,59.17
2018-11-22T17:50:46.619Z,60.80
2018-11-22T17:53:16.028Z,57.17
2018-11-22T17:55:51.586Z,59.77
2018-11-22T17:58:20.722Z,62.10
2018-11-22T18:00:50.991Z,58.83
2018-11-22T18:03:20.385Z,59.93
2018-11-22T18:05:50.297Z,58.77
2018-11-22T18:08:19.468Z,58.00
2018-11-22T18:10:48.699Z,57.70
2018-11-22T18:13:17.910Z,56.13
2018-11-22T18:15:52.230Z,57.73
2018-11-22T18:18:21.414Z,57.27
2018-11-22T18:20:50.531Z,59.10
2018-11-22T18:23:19.668Z,58.67
2018-11-22T18:25:49.196Z,56.73
2018-11-22T18:28:17.987Z,58.87
2018-11-22T18:30:47.096Z,61.77
2018-11-22T18:33:16.223Z,54.40
2018-11-22T18:35:45.327Z,58.83
2018-11-22T18:38:14.492Z,59.27
2018-11-22T18:40:44.193Z,59.10
2018-11-22T18:43:13.359Z,57.63
2018-11-22T18:45:44.969Z,59.23
2018-11-22T18:48:15.254Z,57.40
2018-11-22T18:50:44.771Z,56.57
2018-11-22T18:53:13.941Z,56.80
2018-11-22T18:55:43.074Z,62.13
2018-11-22T18:58:12.467Z,58.10
2018-11-22T19:00:43.217Z,58.20
2018-11-22T19:03:14.731Z,61.17
2018-11-22T19:05:43.862Z,56.97
2018-11-22T19:08:12.983Z,57.20
2018-11-22T19:10:42.867Z,62.43
2018-11-22T19:13:12.673Z,62.37
2018-11-22T19:15:43.227Z,60.53
2018-11-22T19:18:13.004Z,60.90
2018-11-22T19:20:43.245Z,59.17
2018-11-22T19:23:13.263Z,64.03
2018-11-22T19:25:42.433Z,58.10
2018-11-22T19:28:11.626Z,61.33
2018-11-22T19:30:42.274Z,61.60
2018-11-22T19:33:12.919Z,63.33
2018-11-22T19:35:43.529Z,60.43
2018-11-22T19:38:12.751Z,61.23
2018-11-22T19:40:42.646Z,58.20
2018-11-22T19:43:12.065Z,63.03
2018-11-22T19:45:42.674Z,61.03
2018-11-22T19:48:11.889Z,62.10
2018-11-22T19:50:40.983Z,63.50
2018-11-22T19:53:11.506Z,59.83
2018-11-22T19:55:41.010Z,62.10
2018-11-22T19:58:11.648Z,62.77
2018-11-22T20:00:40.838Z,61.73
2018-11-22T20:03:10.150Z,60.27
2018-11-22T20:05:40.707Z,60.73
2018-11-22T20:08:14.779Z,61.30
2018-11-22T20:10:45.049Z,63.53
2018-11-22T20:13:14.192Z,63.17
2018-11-22T20:15:43.286Z,63.37
2018-11-22T20:18:12.829Z,67.47
2018-11-22T20:20:43.067Z,62.63
2018-11-22T20:23:11.091Z,66.80
2018-11-22T20:25:40.202Z,67.00
2018-11-22T20:28:09.328Z,62.90
2018-11-22T20:30:40.072Z,60.07
2018-11-22T20:33:09.216Z,61.10
2018-11-22T20:35:38.356Z,56.93
2018-11-22T20:38:07.519Z,55.70
2018-11-22T20:40:36.644Z,60.03
2018-11-22T20:43:06.187Z,55.97
2018-11-22T20:45:40.726Z,57.13
2018-11-22T20:48:06.155Z,58.40
2018-11-22T20:50:35.805Z,58.60
2018-11-22T20:53:04.955Z,56.90
2018-11-22T20:55:35.713Z,59.03
2018-11-22T20:58:05.908Z,57.40
2018-11-22T21:00:37.608Z,55.40
2018-11-22T21:03:06.818Z,57.27
2018-11-22T21:05:35.912Z,53.73
2018-11-22T21:08:05.055Z,56.40
2018-11-22T21:10:34.654Z,54.87
2018-11-22T21:13:03.766Z,53.17
2018-11-22T21:15:33.715Z,58.27
2018-11-22T21:18:04.250Z,58.80
2018-11-22T21:20:34.837Z,56.07
2018-11-22T21:23:03.995Z,55.93
2018-11-22T21:25:33.193Z,54.63
2018-11-22T21:28:02.293Z,55.37
2018-11-22T21:30:32.847Z,54.63
2018-11-22T21:33:02.483Z,52.03
2018-11-22T21:35:31.863Z,54.20
2018-11-22T21:38:01.751Z,53.90
2018-11-22T21:40:31.393Z,53.70
2018-11-22T21:43:00.524Z,53.93
2018-11-22T21:45:30.194Z,51.57
2018-11-22T21:47:59.364Z,54.70
2018-11-22T21:50:29.022Z,50.80
2018-11-22T21:52:58.134Z,52.67
2018-11-22T21:55:28.538Z,53.00
2018-11-22T21:57:58.867Z,52.23
2018-11-22T22:00:32.442Z,53.30
2018-11-22T22:03:04.510Z,54.77
2018-11-22T22:05:33.621Z,50.57
2018-11-22T22:08:02.825Z,53.77
2018-11-22T22:10:31.935Z,53.57
2018-11-22T22:13:01.059Z,52.20
2018-11-22T22:15:31.275Z,53.00
2018-11-22T22:18:00.426Z,53.60
2018-11-22T22:20:31.160Z,51.10
2018-11-22T22:23:00.278Z,50.90
2018-11-22T22:25:29.674Z,53.20
2018-11-22T22:27:59.326Z,55.03
2018-11-22T22:30:32.780Z,52.67
2018-11-22T22:33:03.320Z,53.37
2018-11-22T22:35:32.455Z,54.23
2018-11-22T22:38:01.555Z,51.30
2018-11-22T22:40:31.716Z,50.50
2018-11-22T22:43:00.911Z,53.53
2018-11-22T22:45:31.025Z,51.20
2018-11-22T22:48:00.162Z,51.43
2018-11-22T22:50:30.357Z,52.20
2018-11-22T22:53:00.375Z,54.03
2018-11-22T22:55:29.860Z,50.47
2018-11-22T22:57:58.977Z,51.97
2018-11-22T23:00:34.197Z,52.17
2018-11-22T23:03:05.670Z,49.60
2018-11-22T23:05:35.063Z,52.87
2018-11-22T23:08:04.192Z,51.87
2018-11-22T23:10:33.614Z,53.27
2018-11-22T23:13:02.796Z,53.50
2018-11-22T23:15:32.420Z,51.47
2018-11-22T23:18:01.570Z,49.60
2018-11-22T23:20:31.977Z,51.03
2018-11-22T23:23:01.113Z,50.20
2018-11-22T23:25:30.697Z,49.23
2018-11-22T23:27:59.834Z,52.03
2018-11-22T23:30:33.179Z,52.00
2018-11-22T23:33:03.822Z,52.33
2018-11-22T23:35:32.982Z,52.77
2018-11-22T23:38:02.081Z,52.50
2018-11-22T23:40:32.037Z,58.63
2018-11-22T23:43:01.139Z,53.83
2018-11-22T23:45:31.355Z,53.00
2018-11-22T23:48:00.512Z,53.40
2018-11-22T23:50:30.974Z,54.87
2018-11-22T23:53:01.091Z,51.93
2018-11-22T23:55:30.238Z,54.43
2018-11-22T23:57:59.359Z,53.83
